createdAt,value
2024-03-02T00:02:30.073Z,46.10
2024-03-02T00:05:00.741Z,39.80
2024-03-02T00:07:32.767Z,43.40
2024-03-02T00:10:06.486Z,43.20
2024-03-02T00:12:37.922Z,43.70
2024-03-02T00:15:22.949Z,41.50
2024-03-02T00:17:57.358Z,42.30
2024-03-02T00:20:29.069Z,44.20
2024-03-02T00:23:05.229Z,43.20
2024-03-02T00:25:43.028Z,43.90
2024-03-02T00:28:21.754Z,44.40
2024-03-02T00:31:12.950Z,49.30
2024-03-02T00:33:45.666Z,51.70
2024-03-02T00:36:24.049Z,47.70
2024-03-02T00:38:56.158Z,43.80
2024-03-02T00:41:29.928Z,39.90
2024-03-02T00:44:06.742Z,44.60
2024-03-02T00:46:39.256Z,48.00
2024-03-02T00:49:21.049Z,45.00
2024-03-02T00:51:53.024Z,48.60
2024-03-02T00:54:25.428Z,49.80
2024-03-02T00:56:57.506Z,42.90
2024-03-02T00:59:28.361Z,40.40
2024-03-02T01:01:59.037Z,43.70
2024-03-02T01:04:29.824Z,42.20
2024-03-02T01:07:00.642Z,45.60
2024-03-02T01:09:31.450Z,46.90
2024-03-02T01:12:02.061Z,44.20
2024-03-02T01:14:32.710Z,44.50
2024-03-02T01:17:04.819Z,42.60
2024-03-02T01:19:35.422Z,46.80
2024-03-02T01:22:06.209Z,44.60
2024-03-02T01:24:36.847Z,41.80
2024-03-02T01:27:07.714Z,47.80
2024-03-02T01:29:38.321Z,43.80
2024-03-02T01:32:09.997Z,43.70
2024-03-02T01:34:40.675Z,42.60
2024-03-02T01:37:11.868Z,42.80
2024-03-02T01:39:42.593Z,41.20
2024-03-02T01:42:13.359Z,42.10
2024-03-02T01:44:44.419Z,39.50
2024-03-02T01:47:15.507Z,42.20
2024-03-02T01:49:46.468Z,39.80
2024-03-02T01:52:17.117Z,39.70
2024-03-02T01:54:47.837Z,42.00
2024-03-02T01:57:18.825Z,45.40
2024-03-02T01:59:49.800Z,38.80
2024-03-02T02:02:21.229Z,40.10
2024-03-02T02:04:51.936Z,39.90
2024-03-02T02:07:22.562Z,37.40
2024-03-02T02:09:53.335Z,41.70
2024-03-02T02:12:24.089Z,44.20
2024-03-02T02:14:54.789Z,43.90
2024-03-02T02:17:25.461Z,42.40
2024-03-02T02:19:56.036Z,44.30
2024-03-02T02:22:26.635Z,41.90
2024-03-02T02:24:57.508Z,46.60
2024-03-02T02:27:28.110Z,42.30
2024-03-02T02:29:58.751Z,43.40
2024-03-02T02:32:29.529Z,44.30
2024-03-02T02:35:00.437Z,43.80
2024-03-02T02:37:31.121Z,44.50
2024-03-02T02:40:01.889Z,38.40
2024-03-02T02:42:32.602Z,44.20
2024-03-02T02:45:03.339Z,41.50
2024-03-02T02:47:36.084Z,41.10
2024-03-02T02:50:09.486Z,41.90
2024-03-02T02:52:41.780Z,45.80
2024-03-02T02:55:14.612Z,38.60
2024-03-02T02:57:46.787Z,42.40
2024-03-02T03:00:21.108Z,38.30
2024-03-02T03:02:52.893Z,40.50
2024-03-02T03:05:24.135Z,39.70
2024-03-02T03:07:54.830Z,43.60
2024-03-02T03:10:27.650Z,41.30
2024-03-02T03:12:58.480Z,37.80
2024-03-02T03:15:29.174Z,40.10
2024-03-02T03:17:59.899Z,40.80
2024-03-02T03:20:30.578Z,41.40
2024-03-02T03:23:01.200Z,41.10
2024-03-02T03:25:31.803Z,44.60
2024-03-02T03:28:04.292Z,42.20
2024-03-02T03:30:35.058Z,45.20
2024-03-02T03:33:07.025Z,43.20
2024-03-02T03:35:38.645Z,41.30
2024-03-02T03:38:09.249Z,46.40
2024-03-02T03:40:39.936Z,43.90
2024-03-02T03:43:10.621Z,40.80
2024-03-02T03:45:41.354Z,38.90
2024-03-02T03:48:12.177Z,39.70
2024-03-02T03:50:42.942Z,43.80
2024-03-02T03:53:13.604Z,45.40
2024-03-02T03:55:44.279Z,39.40
2024-03-02T03:58:15.444Z,43.20
2024-03-02T04:00:46.128Z,41.30
2024-03-02T04:03:16.862Z,39.90
2024-03-02T04:05:47.482Z,38.80
2024-03-02T04:08:18.248Z,39.00
2024-03-02T04:10:48.969Z,46.80
2024-03-02T04:13:19.828Z,42.40
2024-03-02T04:15:50.527Z,43.30
2024-03-02T04:18:21.261Z,40.20
2024-03-02T04:20:54.110Z,41.40
2024-03-02T04:23:25.062Z,41.70
2024-03-02T04:25:55.669Z,40.50
2024-03-02T04:28:26.331Z,39.10
2024-03-02T04:30:57.100Z,37.80
2024-03-02T04:33:27.934Z,38.20
2024-03-02T04:35:58.800Z,33.70
2024-03-02T04:38:30.024Z,39.90
2024-03-02T04:41:00.664Z,41.60
2024-03-02T04:43:31.325Z,44.70
2024-03-02T04:46:02.402Z,40.60
2024-03-02T04:48:33.504Z,44.00
2024-03-02T04:51:04.242Z,49.70
2024-03-02T04:53:34.868Z,50.70
2024-03-02T04:56:28.603Z,47.20
2024-03-02T04:58:59.180Z,39.80
2024-03-02T05:01:29.848Z,45.50
2024-03-02T05:04:00.690Z,45.00
2024-03-02T05:06:32.224Z,44.30
2024-03-02T05:09:03.006Z,41.50
2024-03-02T05:11:54.326Z,49.60
2024-03-02T05:14:24.974Z,50.40
2024-03-02T05:16:55.642Z,43.10
2024-03-02T05:19:26.423Z,50.20
2024-03-02T05:21:57.148Z,51.80
2024-03-02T05:24:29.461Z,55.10
2024-03-02T05:27:00.701Z,52.80
2024-03-02T05:29:31.364Z,48.40
2024-03-02T05:32:01.994Z,50.60
2024-03-02T05:34:34.077Z,49.10
2024-03-02T05:37:04.756Z,51.30
2024-03-02T05:39:35.469Z,50.10
2024-03-02T05:42:07.018Z,50.40
2024-03-02T05:44:37.694Z,54.90
2024-03-02T05:47:09.903Z,50.60
2024-03-02T05:49:40.803Z,51.70
2024-03-02T05:52:11.903Z,45.10
2024-03-02T05:54:42.681Z,50.80
2024-03-02T05:57:27.302Z,49.00
2024-03-02T05:59:58.697Z,46.90
2024-03-02T06:02:29.313Z,47.90
2024-03-02T06:05:00.084Z,48.40
2024-03-02T06:07:30.676Z,44.80
2024-03-02T06:10:01.541Z,50.90
2024-03-02T06:12:34.578Z,45.60
2024-03-02T06:15:06.096Z,42.80
2024-03-02T06:17:38.738Z,49.30
2024-03-02T06:20:11.814Z,43.40
2024-03-02T06:22:42.561Z,45.50
2024-03-02T06:25:14.242Z,43.40
2024-03-02T06:27:44.969Z,39.80
2024-03-02T06:30:16.782Z,42.50
2024-03-02T06:32:47.486Z,41.70
2024-03-02T06:35:18.312Z,41.40
2024-03-02T06:37:49.010Z,42.70
2024-03-02T06:40:20.022Z,45.80
2024-03-02T06:42:50.747Z,35.40
2024-03-02T06:45:21.441Z,47.00
2024-03-02T06:47:52.073Z,41.60
2024-03-02T06:50:22.684Z,39.80
2024-03-02T06:52:53.533Z,39.00
2024-03-02T06:55:25.503Z,40.80
2024-03-02T06:57:56.215Z,45.10
2024-03-02T07:00:26.933Z,46.00
2024-03-02T07:02:57.632Z,39.70
2024-03-02T07:05:28.312Z,40.60
2024-03-02T07:07:59.010Z,43.80
2024-03-02T07:10:29.646Z,40.90
2024-03-02T07:13:00.821Z,37.50
2024-03-02T07:15:45.577Z,44.10
2024-03-02T07:18:18.894Z,39.40
2024-03-02T07:20:50.780Z,41.30
2024-03-02T07:23:24.391Z,42.80
2024-03-02T07:28:29.861Z,45.60
2024-03-02T07:31:04.099Z,38.50
2024-03-02T07:33:35.058Z,40.80
2024-03-02T07:36:06.707Z,45.60
2024-03-02T07:38:37.609Z,42.40
2024-03-02T07:41:08.680Z,40.70
2024-03-02T07:43:39.435Z,45.70
2024-03-02T07:46:10.295Z,46.80
2024-03-02T07:48:41.030Z,44.40
2024-03-02T07:51:11.784Z,42.30
2024-03-02T07:53:42.491Z,39.80
2024-03-02T07:56:13.163Z,38.80
2024-03-02T07:58:43.774Z,42.00
2024-03-02T08:01:14.505Z,41.70
2024-03-02T08:03:49.092Z,41.90
2024-03-02T08:06:21.853Z,48.40
2024-03-02T08:08:52.550Z,54.20
2024-03-02T08:11:23.370Z,55.90
2024-03-02T08:13:55.958Z,49.40
2024-03-02T08:16:26.908Z,48.80
2024-03-02T08:18:59.196Z,50.60
2024-03-02T08:21:31.753Z,54.00
2024-03-02T08:24:02.774Z,47.90
2024-03-02T08:26:33.509Z,45.70
2024-03-02T08:29:04.768Z,45.90
2024-03-02T08:31:36.926Z,48.20
2024-03-02T08:34:09.058Z,45.70
2024-03-02T08:36:40.349Z,50.40
2024-03-02T08:39:16.609Z,45.50
2024-03-02T08:41:48.048Z,43.80
2024-03-02T08:44:19.276Z,39.70
2024-03-02T08:46:49.972Z,42.10
2024-03-02T08:49:20.676Z,40.30
2024-03-02T08:51:55.808Z,35.00
2024-03-02T08:54:26.990Z,35.70
2024-03-02T08:56:57.857Z,31.40
2024-03-02T08:59:29.030Z,33.20
2024-03-02T09:01:59.994Z,34.70
2024-03-02T09:04:34.894Z,29.00
2024-03-02T09:07:06.544Z,34.50
2024-03-02T09:09:37.241Z,29.90
2024-03-02T09:12:09.039Z,27.50
2024-03-02T09:14:40.035Z,29.80
2024-03-02T09:17:11.927Z,28.40
2024-03-02T09:19:43.257Z,28.40
2024-03-02T09:22:14.350Z,27.80
2024-03-02T09:24:44.999Z,29.40
2024-03-02T09:27:15.797Z,27.40
2024-03-02T09:29:46.442Z,25.50
2024-03-02T09:32:17.422Z,29.90
2024-03-02T09:34:49.407Z,30.90
2024-03-02T09:37:20.165Z,28.50
2024-03-02T09:39:50.994Z,25.70
2024-03-02T09:42:24.487Z,26.60
2024-03-02T09:44:56.366Z,29.90
2024-03-02T09:47:27.272Z,26.70
2024-03-02T09:49:58.058Z,27.30
2024-03-02T09:52:29.214Z,32.50
2024-03-02T09:55:00.058Z,30.10
2024-03-02T09:57:31.053Z,27.20
2024-03-02T10:00:01.837Z,28.90
2024-03-02T10:02:32.629Z,31.90
2024-03-02T10:05:05.265Z,34.10
2024-03-02T10:07:36.095Z,31.70
2024-03-02T10:10:17.391Z,29.90
2024-03-02T10:12:48.047Z,35.10
2024-03-02T10:15:27.426Z,40.30
2024-03-02T10:17:58.871Z,38.70
2024-03-02T10:20:30.867Z,36.80
2024-03-02T10:23:13.972Z,34.90
2024-03-02T10:25:52.110Z,38.30
2024-03-02T10:28:29.347Z,33.40
2024-03-02T10:31:01.201Z,38.90
2024-03-02T10:33:32.150Z,34.40
2024-03-02T10:36:02.916Z,37.60
2024-03-02T10:38:34.015Z,37.30
2024-03-02T10:41:05.614Z,39.60
2024-03-02T10:43:36.419Z,33.60
2024-03-02T10:46:07.492Z,36.80
2024-03-02T10:48:41.886Z,31.70
2024-03-02T10:51:12.695Z,29.20
2024-03-02T10:53:43.437Z,33.10
2024-03-02T10:56:18.927Z,29.70
2024-03-02T10:58:53.202Z,29.10
2024-03-02T11:01:24.655Z,30.20
2024-03-02T11:03:56.173Z,30.60
2024-03-02T11:06:29.007Z,25.40
2024-03-02T11:09:04.301Z,25.00
2024-03-02T11:11:38.791Z,29.40
2024-03-02T11:14:15.507Z,22.70
2024-03-02T11:16:47.229Z,27.40
2024-03-02T11:19:19.213Z,26.50
2024-03-02T11:21:50.622Z,22.10
2024-03-02T11:24:38.915Z,23.80
2024-03-02T11:27:13.649Z,22.10
2024-03-02T11:29:50.699Z,25.80
2024-03-02T11:32:24.822Z,21.60
2024-03-02T11:34:56.544Z,17.00
2024-03-02T11:37:28.499Z,17.10
2024-03-02T11:39:59.301Z,18.00
2024-03-02T11:42:30.103Z,16.50
2024-03-02T11:45:01.670Z,17.40
2024-03-02T11:47:38.585Z,15.10
2024-03-02T11:50:11.089Z,15.50
2024-03-02T11:52:42.713Z,14.60
2024-03-02T11:55:13.766Z,12.30
2024-03-02T11:57:44.753Z,16.70
2024-03-02T12:00:22.377Z,18.10
2024-03-02T12:03:04.311Z,13.20
2024-03-02T12:05:36.103Z,12.60
2024-03-02T12:08:08.681Z,13.70
2024-03-02T12:10:40.071Z,15.50
2024-03-02T12:13:13.038Z,17.10
2024-03-02T12:15:43.964Z,15.10
2024-03-02T12:18:14.723Z,21.70
2024-03-02T12:20:45.469Z,21.20
2024-03-02T12:23:17.148Z,20.00
2024-03-02T12:25:49.367Z,19.90
2024-03-02T12:28:21.366Z,19.50
2024-03-02T12:30:53.830Z,24.00
2024-03-02T12:33:25.320Z,21.90
2024-03-02T12:35:56.172Z,23.90
2024-03-02T12:38:28.571Z,20.30
2024-03-02T12:40:59.705Z,24.10
2024-03-02T12:43:34.491Z,22.60
2024-03-02T12:46:05.587Z,22.90
2024-03-02T12:48:36.683Z,24.50
2024-03-02T12:51:08.065Z,23.10
2024-03-02T12:53:38.913Z,21.00
2024-03-02T12:56:11.589Z,23.90
2024-03-02T12:58:44.251Z,21.40
2024-03-02T13:01:20.258Z,21.00
2024-03-02T13:03:52.647Z,19.90
2024-03-02T13:06:23.925Z,20.20
2024-03-02T13:08:54.763Z,21.20
2024-03-02T13:11:26.570Z,18.70
2024-03-02T13:13:57.336Z,20.00
2024-03-02T13:16:32.829Z,20.90
2024-03-02T13:19:09.242Z,19.10
2024-03-02T13:21:40.315Z,19.70
2024-03-02T13:24:11.324Z,21.80
2024-03-02T13:26:42.517Z,24.00
2024-03-02T13:29:13.217Z,23.30
2024-03-02T13:31:43.894Z,19.80
2024-03-02T13:34:14.834Z,19.70
2024-03-02T13:36:45.668Z,22.80
2024-03-02T13:39:16.669Z,23.10
2024-03-02T13:41:53.761Z,20.80
2024-03-02T13:44:24.772Z,17.80
2024-03-02T13:46:55.947Z,19.50
2024-03-02T13:49:29.742Z,18.30
2024-03-02T13:52:01.592Z,20.40
2024-03-02T13:54:32.998Z,20.20
2024-03-02T13:57:03.742Z,25.40
2024-03-02T13:59:34.511Z,24.10
2024-03-02T14:02:06.316Z,18.00
2024-03-02T14:04:38.115Z,17.70
2024-03-02T14:07:09.994Z,17.60
2024-03-02T14:09:40.898Z,16.70
2024-03-02T14:12:14.478Z,16.10
2024-03-02T14:14:45.633Z,14.50
2024-03-02T14:17:16.924Z,17.60
2024-03-02T14:19:49.142Z,20.20
2024-03-02T14:22:22.224Z,19.10
2024-03-02T14:24:53.136Z,18.30
2024-03-02T14:27:32.530Z,18.70
2024-03-02T14:30:16.435Z,19.40
2024-03-02T14:32:47.101Z,18.50
2024-03-02T14:35:17.991Z,18.80
2024-03-02T14:37:48.846Z,21.10
2024-03-02T14:40:19.684Z,18.50
2024-03-02T14:42:50.511Z,22.90
2024-03-02T14:45:21.206Z,16.70
2024-03-02T14:47:52.183Z,19.30
2024-03-02T14:50:23.038Z,24.10
2024-03-02T14:52:53.893Z,21.80
2024-03-02T14:55:24.823Z,22.80
2024-03-02T14:57:55.663Z,22.30
2024-03-02T15:00:26.448Z,20.20
2024-03-02T15:02:57.454Z,26.00
2024-03-02T15:05:28.187Z,23.40
2024-03-02T15:08:00.470Z,21.60
2024-03-02T15:10:31.213Z,20.50
2024-03-02T15:13:02.746Z,22.70
2024-03-02T15:15:33.614Z,23.70
2024-03-02T15:18:06.548Z,21.50
2024-03-02T15:20:37.789Z,25.70
2024-03-02T15:23:08.694Z,23.90
2024-03-02T15:25:39.696Z,21.80
2024-03-02T15:28:10.709Z,20.80
2024-03-02T15:30:42.639Z,20.10
2024-03-02T15:33:13.458Z,20.80
2024-03-02T15:35:44.749Z,25.00
2024-03-02T15:38:24.962Z,19.40
2024-03-02T15:41:03.558Z,22.00
2024-03-02T15:43:37.059Z,22.00
2024-03-02T15:46:08.031Z,24.10
2024-03-02T15:48:39.244Z,21.10
2024-03-02T15:51:09.970Z,19.50
2024-03-02T15:53:41.128Z,21.90
2024-03-02T15:56:12.261Z,24.60
2024-03-02T15:58:43.309Z,23.10
2024-03-02T16:01:14.300Z,21.00
2024-03-02T16:03:45.113Z,22.70
2024-03-02T16:06:16.002Z,22.60
2024-03-02T16:08:46.738Z,22.10
2024-03-02T16:11:17.438Z,21.50
2024-03-02T16:13:48.316Z,24.90
2024-03-02T16:16:19.485Z,20.90
2024-03-02T16:18:50.401Z,23.20
2024-03-02T16:21:21.411Z,22.40
2024-03-02T16:23:52.147Z,22.60
2024-03-02T16:26:22.862Z,21.80
2024-03-02T16:28:53.665Z,22.60
2024-03-02T16:31:25.771Z,25.00
2024-03-02T16:33:56.559Z,22.60
2024-03-02T16:36:29.054Z,23.80
2024-03-02T16:38:59.808Z,22.50
2024-03-02T16:41:34.046Z,20.40
2024-03-02T16:44:07.211Z,22.70
2024-03-02T16:46:39.074Z,25.30
2024-03-02T16:49:10.245Z,24.50
2024-03-02T16:51:44.665Z,22.20
2024-03-02T16:54:15.629Z,28.30
2024-03-02T16:56:47.020Z,25.10
2024-03-02T16:59:17.745Z,23.40
2024-03-02T17:01:48.499Z,21.60
2024-03-02T17:04:21.101Z,23.20
2024-03-02T17:06:52.144Z,22.20
2024-03-02T17:09:22.973Z,23.80
2024-03-02T17:11:53.691Z,22.30
2024-03-02T17:14:25.539Z,25.30
2024-03-02T17:16:56.720Z,24.90
2024-03-02T17:19:27.451Z,19.60
2024-03-02T17:21:58.084Z,21.40
2024-03-02T17:24:28.797Z,26.20
2024-03-02T17:26:59.739Z,21.60
2024-03-02T17:29:30.532Z,20.60
2024-03-02T17:32:01.293Z,25.20
2024-03-02T17:34:31.929Z,26.10
2024-03-02T17:37:02.598Z,22.30
2024-03-02T17:39:33.347Z,22.60
2024-03-02T17:42:04.026Z,25.80
2024-03-02T17:44:34.673Z,26.20
2024-03-02T17:47:06.021Z,26.20
2024-03-02T17:49:36.741Z,28.40
2024-03-02T17:52:08.511Z,27.10
2024-03-02T17:54:39.365Z,24.90
2024-03-02T17:57:09.992Z,30.00
2024-03-02T17:59:40.628Z,31.70
2024-03-02T18:02:11.493Z,30.30
2024-03-02T18:04:43.208Z,29.40
2024-03-02T18:07:14.017Z,27.80
2024-03-02T18:09:44.801Z,25.80
2024-03-02T18:12:15.458Z,27.90
2024-03-02T18:14:46.395Z,26.00
2024-03-02T18:17:17.224Z,27.00
2024-03-02T18:19:48.364Z,27.40
2024-03-02T18:22:19.201Z,28.90
2024-03-02T18:24:49.958Z,26.00
2024-03-02T18:27:20.680Z,27.60
2024-03-02T18:29:51.391Z,26.10
2024-03-02T18:32:22.118Z,25.20
2024-03-02T18:34:52.999Z,22.20
2024-03-02T18:37:24.071Z,25.90
2024-03-02T18:39:54.939Z,26.40
2024-03-02T18:42:26.710Z,22.20
2024-03-02T18:44:57.430Z,21.50
2024-03-02T18:47:28.463Z,23.40
2024-03-02T18:50:00.041Z,27.10
2024-03-02T18:52:34.466Z,27.20
2024-03-02T18:55:05.513Z,24.50
2024-03-02T18:57:36.453Z,21.40
2024-03-02T19:00:13.536Z,24.50
2024-03-02T19:02:45.068Z,17.90
2024-03-02T19:05:15.989Z,18.80
2024-03-02T19:07:46.797Z,22.20
2024-03-02T19:10:17.609Z,20.20
2024-03-02T19:12:48.968Z,22.60
2024-03-02T19:15:20.173Z,22.30
2024-03-02T19:17:50.910Z,19.20
2024-03-02T19:20:21.735Z,19.40
2024-03-02T19:22:54.302Z,21.00
2024-03-02T19:25:25.922Z,23.90
2024-03-02T19:27:57.325Z,23.60
2024-03-02T19:30:28.499Z,29.80
2024-03-02T19:32:59.233Z,28.30
2024-03-02T19:35:30.055Z,28.40
2024-03-02T19:38:00.808Z,25.90
2024-03-02T19:40:31.507Z,28.40
2024-03-02T19:43:02.400Z,25.70
2024-03-02T19:45:33.273Z,29.80
2024-03-02T19:48:04.548Z,27.30
2024-03-02T19:50:35.210Z,33.40
2024-03-02T19:53:06.488Z,27.90
2024-03-02T19:55:38.972Z,29.00
2024-03-02T19:58:10.162Z,27.10
2024-03-02T20:00:41.619Z,29.60
2024-03-02T20:03:12.644Z,28.90
2024-03-02T20:05:43.465Z,24.30
2024-03-02T20:08:14.370Z,29.00
2024-03-02T20:10:47.902Z,29.80
2024-03-02T20:13:18.964Z,32.80
2024-03-02T20:15:50.138Z,29.60
2024-03-02T20:18:20.908Z,29.80
2024-03-02T20:20:51.671Z,28.00
2024-03-02T20:23:22.583Z,30.00
2024-03-02T20:25:55.435Z,30.30
2024-03-02T20:28:26.756Z,26.80
2024-03-02T20:30:57.538Z,30.60
2024-03-02T20:33:28.276Z,29.10
2024-03-02T20:35:58.939Z,29.20
2024-03-02T20:38:29.772Z,31.60
2024-03-02T20:41:00.565Z,28.90
2024-03-02T20:43:31.425Z,25.90
2024-03-02T20:46:07.563Z,29.20
2024-03-02T20:48:38.772Z,27.40
2024-03-02T20:51:09.907Z,25.90
2024-03-02T20:53:40.647Z,29.00
2024-03-02T20:56:11.551Z,31.20
2024-03-02T20:58:42.410Z,30.40
2024-03-02T21:01:14.249Z,36.90
2024-03-02T21:03:46.278Z,35.40
2024-03-02T21:06:17.137Z,32.00
2024-03-02T21:08:47.812Z,29.40
2024-03-02T21:11:19.634Z,30.80
2024-03-02T21:13:50.549Z,33.50
2024-03-02T21:16:21.424Z,33.20
2024-03-02T21:18:52.213Z,28.80
2024-03-02T21:21:22.903Z,32.80
2024-03-02T21:23:53.698Z,29.00
2024-03-02T21:26:24.437Z,31.30
2024-03-02T21:28:55.099Z,31.60
2024-03-02T21:31:25.757Z,29.70
2024-03-02T21:33:56.399Z,30.00
2024-03-02T21:36:27.061Z,28.30
2024-03-02T21:38:57.720Z,28.80
2024-03-02T21:41:28.366Z,32.50
2024-03-02T21:43:59.242Z,32.70
2024-03-02T21:46:29.987Z,31.80
2024-03-02T21:49:00.666Z,28.70
2024-03-02T21:51:31.425Z,29.50
2024-03-02T21:54:02.051Z,31.10
2024-03-02T21:56:32.710Z,31.30
2024-03-02T21:59:03.368Z,32.30
2024-03-02T22:01:34.153Z,28.30
2024-03-02T22:04:04.893Z,31.90
2024-03-02T22:06:35.589Z,31.80
2024-03-02T22:09:06.648Z,29.70
2024-03-02T22:11:37.474Z,27.60
2024-03-02T22:14:08.558Z,29.50
2024-03-02T22:16:39.264Z,28.40
2024-03-02T22:19:10.569Z,30.00
2024-03-02T22:21:41.377Z,28.10
2024-03-02T22:24:15.910Z,28.70
2024-03-02T22:26:46.645Z,30.40
2024-03-02T22:29:17.377Z,28.10
2024-03-02T22:31:48.041Z,29.00
2024-03-02T22:34:18.745Z,25.20
2024-03-02T22:36:49.559Z,28.20
2024-03-02T22:39:20.231Z,33.30
2024-03-02T22:41:51.800Z,28.30
2024-03-02T22:44:22.541Z,22.70
2024-03-02T22:46:53.465Z,29.10
2024-03-02T22:49:24.134Z,27.50
2024-03-02T22:51:54.929Z,30.50
2024-03-02T22:54:25.565Z,28.50
2024-03-02T22:56:58.211Z,29.70
2024-03-02T22:59:28.896Z,29.10
2024-03-02T23:01:59.667Z,27.00
2024-03-02T23:04:30.428Z,28.50
2024-03-02T23:07:01.180Z,28.20
2024-03-02T23:09:31.930Z,27.90
2024-03-02T23:12:02.669Z,27.60
2024-03-02T23:14:33.376Z,28.70
2024-03-02T23:17:04.250Z,30.70
2024-03-02T23:19:35.351Z,24.40
2024-03-02T23:22:07.311Z,25.80
2024-03-02T23:24:38.193Z,28.00
2024-03-02T23:27:09.105Z,28.40
2024-03-02T23:29:41.314Z,23.70
2024-03-02T23:32:12.645Z,26.10
2024-03-02T23:34:43.391Z,27.10
2024-03-02T23:37:14.402Z,24.40
2024-03-02T23:40:06.802Z,24.90
2024-03-02T23:42:38.134Z,24.10
2024-03-02T23:45:10.119Z,24.80
2024-03-02T23:47:41.166Z,23.40
2024-03-02T23:50:13.111Z,24.60
2024-03-02T23:52:43.816Z,25.00
2024-03-02T23:55:14.583Z,27.20
2024-03-02T23:57:45.265Z,19.50
